Overseas Milos — V7WR8 — position and weather

sailwx.info

Track history (hours):
 
Tides and Currents Weather Stations Pressure Air Temp Water Temp Dewpoint Dewpoint Depression Visibility Wind Speed Wind Dir Waves Ship Positions

Overseas Milos

Last reported at 2017-May-13 23:00 UTC. Time now 2017-May-26 11:12 UTC.
Position N 09°30' W 079°52'.
Warning: this ship's position is 12 days out of date.

Length 183 m; draft 10.9 m.

Type: Tanker. MMSI: 538004376.

Date/timePositionNaut miles runAvg speedWind from/ knotsBaromVisibWave heightAir tempDewpointWater temp
2017-May-13 23:00N 09°30' W 079°52'612.9
2017-May-13 22:30N 09°24' W 079°55'4 8.7
2017-May-13 22:00N 09°20' W 079°55'3 5.8
2017-May-13 21:30N 09°17' W 079°55'0 0.6
2017-May-13 21:00N 09°17' W 079°55'0 0.3
2017-May-13 20:24N 09°16' W 079°55'0 0.5
2017-May-13 20:00N 09°16' W 079°55'0 0.4
2017-May-13 19:30N 09°16' W 079°55'1 1.1
2017-May-13 19:00N 09°15' W 079°55'1 1.6
2017-May-13 18:30N 09°15' W 079°55'1 2.8
2017-May-13 18:00N 09°13' W 079°55'3 5.1
2017-May-13 17:25N 09°11' W 079°53'  
Track history (hours):
 
Tides and Currents Weather Stations Pressure Air Temp Water Temp Dewpoint Dewpoint Depression Visibility Wind Speed Wind Dir Waves Ship Positions

Overseas Milos

Last reported at 2017-May-13 23:00 UTC. Time now 2017-May-26 11:12 UTC.
Position N 09°30' W 079°52'.
Warning: this ship's position is 12 days out of date.

Length 183 m; draft 10.9 m.

Type: Tanker. MMSI: 538004376.

Date/timePositionNaut miles runAvg speedWind from/ knotsBaromVisibWave heightAir tempDewpointWater temp
2017-May-13 23:00N 09°30' W 079°52'612.9
2017-May-13 22:30N 09°24' W 079°55'4 8.7
2017-May-13 22:00N 09°20' W 079°55'3 5.8
2017-May-13 21:30N 09°17' W 079°55'0 0.6
2017-May-13 21:00N 09°17' W 079°55'0 0.3
2017-May-13 20:24N 09°16' W 079°55'0 0.5
2017-May-13 20:00N 09°16' W 079°55'0 0.4
2017-May-13 19:30N 09°16' W 079°55'1 1.1
2017-May-13 19:00N 09°15' W 079°55'1 1.6
2017-May-13 18:30N 09°15' W 079°55'1 2.8
2017-May-13 18:00N 09°13' W 079°55'3 5.1
2017-May-13 17:25N 09°11' W 079°53'  

Dump ship's entire track history